Time;durP1;ratioP1;P1;durP2;ratioP2;P2;SDS_P1;SDS_P2;PMS_P1;PMS_P2;Temp;Humidity;BMP_temperature;BMP_pressure;BME280_temperature;BME280_humidity;BME280_pressure;Samples;Min_cycle;Max_cycle;Signal;HPM_P1;HPM_P2
2022/08/06 00:02:14;;;;;;;4.18;2.10;;;28.50;45.20;;;;;;5122608;27;20399;-69
2022/08/06 00:04:40;;;;;;;3.33;1.90;;;28.50;45.10;;;;;;5124174;27;20019;-68
2022/08/06 00:07:06;;;;;;;1.90;1.80;;;28.50;45.00;;;;;;5123263;27;20422;-69
2022/08/06 00:09:32;;;;;;;2.33;1.90;;;28.50;45.40;;;;;;5124018;27;20023;-69
2022/08/06 00:12:03;;;;;;;4.28;2.53;;;28.40;45.40;;;;;;5125434;27;20357;-69
2022/08/06 00:14:30;;;;;;;2.13;1.92;;;28.40;45.70;;;;;;5122027;27;20038;-68
2022/08/06 00:16:56;;;;;;;2.10;1.90;;;28.40;45.80;;;;;;5124387;27;20384;-68
2022/08/06 00:19:23;;;;;;;2.33;2.08;;;28.40;47.40;;;;;;5120325;27;20094;-67
2022/08/06 00:21:50;;;;;;;2.67;2.42;;;28.40;48.10;;;;;;5124004;27;20704;-67
2022/08/06 00:24:16;;;;;;;5.32;2.70;;;28.20;48.50;;;;;;5124960;27;20023;-67
2022/08/06 00:26:42;;;;;;;2.72;2.50;;;28.20;48.40;;;;;;5122816;27;20491;-67
2022/08/06 00:29:08;;;;;;;4.35;2.80;;;28.00;48.60;;;;;;5124236;27;20026;-67
2022/08/06 00:31:33;;;;;;;5.68;2.40;;;27.90;48.80;;;;;;5123130;27;20027;-67
2022/08/06 00:34:03;;;;;;;2.55;2.13;;;27.80;48.80;;;;;;5121514;27;20023;-67
2022/08/06 00:36:31;;;;;;;4.60;2.60;;;27.80;48.90;;;;;;5123669;27;20026;-68
2022/08/06 00:39:00;;;;;;;2.30;2.10;;;27.70;49.40;;;;;;5121347;27;20035;-68
2022/08/06 00:41:27;;;;;;;3.17;2.33;;;27.70;49.10;;;;;;5124152;27;20015;-68
2022/08/06 00:43:53;;;;;;;4.63;2.53;;;27.70;49.50;;;;;;5121908;27;20084;-68
2022/08/06 00:46:19;;;;;;;3.35;2.42;;;27.60;49.40;;;;;;5101455;28;20411;-68
2022/08/06 00:48:44;;;;;;;3.15;2.33;;;27.50;49.70;;;;;;5093293;28;20046;-68
2022/08/06 00:51:10;;;;;;;2.47;2.28;;;27.50;50.00;;;;;;5091662;28;20092;-68
2022/08/06 00:53:36;;;;;;;2.50;2.30;;;27.50;50.00;;;;;;5092732;28;20036;-68
2022/08/06 00:56:04;;;;;;;9.07;2.67;;;27.50;50.10;;;;;;5093004;28;20016;-67
2022/08/06 00:58:30;;;;;;;2.92;2.38;;;27.40;50.50;;;;;;5092901;28;20024;-67
2022/08/06 01:00:56;;;;;;;3.65;2.55;;;27.40;50.20;;;;;;5092910;28;20656;-67
2022/08/06 01:03:22;;;;;;;2.50;2.30;;;27.40;50.50;;;;;;5093102;28;20089;-67
2022/08/06 01:05:48;;;;;;;4.03;2.63;;;27.40;50.60;;;;;;5112467;28;20115;-68
2022/08/06 01:08:14;;;;;;;4.00;2.70;;;27.40;50.70;;;;;;5113085;28;20091;-69
2022/08/06 01:10:40;;;;;;;5.60;2.50;;;27.40;50.50;;;;;;5113002;28;20031;-68
2022/08/06 01:13:06;;;;;;;2.72;2.10;;;27.40;50.80;;;;;;5112916;28;20077;-68
2022/08/06 01:15:37;;;;;;;3.65;2.53;;;27.40;50.60;;;;;;5113088;28;20038;-68
2022/08/06 01:18:13;;;;;;;8.73;2.33;;;27.40;51.40;;;;;;5113165;28;20055;-67
2022/08/06 01:21:04;;;;;;;3.15;2.60;;;27.40;51.80;;;;;;5113195;28;20422;-67
2022/08/06 01:24:18;;;;;;;4.28;2.47;;;27.40;51.40;;;;;;5112746;28;20063;-68
2022/08/06 01:26:53;;;;;;;4.00;2.30;;;27.40;51.20;;;;;;5075043;28;20056;-68
2022/08/06 01:29:27;;;;;;;3.05;2.72;;;27.40;51.40;;;;;;5112748;28;20651;-67
2022/08/06 01:32:07;;;;;;;5.55;2.55;;;27.40;51.40;;;;;;5112793;28;20019;-69
2022/08/06 01:34:48;;;;;;;3.28;2.33;;;27.40;51.30;;;;;;5109845;28;20387;-68
2022/08/06 01:37:30;;;;;;;3.03;2.70;;;27.40;51.20;;;;;;5112473;28;20056;-68
2022/08/06 01:40:01;;;;;;;7.03;3.30;;;27.30;51.60;;;;;;5112560;28;20027;-68
2022/08/06 01:42:29;;;;;;;7.50;3.40;;;27.30;51.90;;;;;;5112556;28;20189;-69
2022/08/06 01:45:01;;;;;;;6.63;3.28;;;27.20;52.00;;;;;;5101514;28;20404;-68
2022/08/06 01:47:29;;;;;;;4.78;2.67;;;27.20;52.00;;;;;;5092137;28;20449;-67
2022/08/06 01:49:58;;;;;;;3.42;2.85;;;27.10;52.30;;;;;;5092150;28;20016;-67
2022/08/06 01:52:27;;;;;;;3.95;2.95;;;27.10;52.00;;;;;;5092075;28;20016;-68
2022/08/06 01:54:58;;;;;;;3.75;2.50;;;27.10;52.30;;;;;;5091982;28;20031;-69
2022/08/06 01:57:26;;;;;;;4.80;2.80;;;27.10;52.40;;;;;;5091996;28;20130;-68
2022/08/06 01:59:55;;;;;;;4.40;2.95;;;27.00;52.50;;;;;;5091835;28;20028;-67
2022/08/06 02:02:27;;;;;;;4.95;3.00;;;26.90;52.40;;;;;;5090612;28;20122;-68
2022/08/06 02:04:55;;;;;;;3.55;2.67;;;26.90;52.40;;;;;;5102541;28;20106;-69
2022/08/06 02:07:27;;;;;;;4.15;2.92;;;26.90;52.60;;;;;;5112482;28;20051;-67
2022/08/06 02:09:55;;;;;;;5.18;3.08;;;26.80;52.70;;;;;;5112341;28;20077;-68
2022/08/06 02:12:24;;;;;;;4.65;3.35;;;26.70;52.90;;;;;;5112320;28;20484;-67
2022/08/06 02:15:04;;;;;;;4.05;3.25;;;26.70;53.40;;;;;;5112295;28;20437;-67
2022/08/06 02:17:37;;;;;;;6.10;2.88;;;26.60;53.60;;;;;;5112214;28;20019;-68
2022/08/06 02:20:04;;;;;;;6.30;3.60;;;26.60;54.70;;;;;;5112199;28;20024;-69
2022/08/06 02:22:33;;;;;;;7.95;3.33;;;26.50;54.80;;;;;;5111970;28;20047;-68
2022/08/06 02:25:04;;;;;;;4.75;3.20;;;26.40;54.80;;;;;;5112058;28;20027;-68
2022/08/06 02:27:32;;;;;;;6.45;3.00;;;26.30;55.00;;;;;;5112101;28;20023;-68
2022/08/06 02:30:00;;;;;;;7.88;3.83;;;26.20;55.30;;;;;;5112022;28;20016;-68
2022/08/06 02:32:26;;;;;;;5.82;3.25;;;26.10;55.40;;;;;;5111931;28;20089;-68
2022/08/06 02:34:53;;;;;;;7.85;3.20;;;26.00;56.40;;;;;;5110379;28;20579;-68
2022/08/06 02:37:23;;;;;;;5.88;3.33;;;25.90;56.90;;;;;;5111906;28;20457;-68
2022/08/06 02:39:59;;;;;;;3.90;3.05;;;25.90;57.60;;;;;;5111934;28;20058;-68
2022/08/06 02:42:39;;;;;;;7.43;3.58;;;25.80;57.90;;;;;;5110202;28;20028;-69
2022/08/06 02:45:14;;;;;;;4.88;3.63;;;25.60;58.20;;;;;;5090204;28;20054;-69
2022/08/06 02:48:31;;;;;;;8.18;3.65;;;25.50;58.10;;;;;;5091479;28;20022;-68
2022/08/06 02:50:59;;;;;;;7.15;3.80;;;25.40;57.50;;;;;;5048978;28;20044;-68
2022/08/06 02:53:35;;;;;;;4.20;3.40;;;25.30;58.70;;;;;;5048911;28;20029;-68
2022/08/06 02:56:10;;;;;;;5.03;3.17;;;25.30;58.90;;;;;;5048865;28;20025;-67
2022/08/06 02:58:41;;;;;;;5.50;3.40;;;25.20;59.20;;;;;;5048825;28;20036;-68
2022/08/06 03:01:12;;;;;;;8.68;3.80;;;25.20;59.30;;;;;;5048844;28;20044;-68
2022/08/06 03:03:40;;;;;;;5.30;3.90;;;25.20;59.60;;;;;;5032395;28;20414;-68
2022/08/06 03:06:08;;;;;;;4.45;3.40;;;25.20;59.40;;;;;;5051835;28;20036;-67
2022/08/06 03:08:35;;;;;;;4.45;3.25;;;25.20;59.60;;;;;;5051991;28;20025;-68
2022/08/06 03:11:02;;;;;;;4.47;3.55;;;25.20;59.80;;;;;;5068792;28;20089;-68
2022/08/06 03:13:28;;;;;;;4.88;3.25;;;25.10;59.70;;;;;;5068627;28;20032;-68
2022/08/06 03:15:56;;;;;;;5.35;3.50;;;25.10;59.80;;;;;;5070909;28;20112;-68
2022/08/06 03:18:22;;;;;;;4.32;3.30;;;25.10;59.70;;;;;;5072371;28;20171;-68
2022/08/06 03:20:50;;;;;;;4.93;3.13;;;25.10;60.00;;;;;;5072040;28;20040;-68
2022/08/06 03:23:16;;;;;;;3.65;3.20;;;25.10;59.90;;;;;;5055612;28;20473;-68
2022/08/06 03:25:44;;;;;;;6.38;3.85;;;25.10;59.80;;;;;;5078935;28;20032;-68
2022/08/06 03:28:13;;;;;;;4.75;3.50;;;25.10;60.00;;;;;;5094839;28;20445;-68
2022/08/06 03:30:40;;;;;;;6.35;3.67;;;25.10;60.10;;;;;;5094654;28;20028;-68
2022/08/06 03:33:18;;;;;;;5.10;3.92;;;25.00;59.90;;;;;;5094657;28;20051;-68
2022/08/06 03:35:45;;;;;;;4.78;3.00;;;25.00;59.70;;;;;;5112181;28;20059;-68
2022/08/06 03:38:13;;;;;;;4.85;3.95;;;25.00;59.60;;;;;;5113688;28;20391;-68
2022/08/06 03:40:43;;;;;;;4.40;3.33;;;25.00;60.00;;;;;;5114808;28;20080;-68
2022/08/06 03:43:10;;;;;;;4.10;3.53;;;25.00;60.00;;;;;;5094882;28;20044;-67
2022/08/06 03:45:41;;;;;;;6.35;3.28;;;25.00;60.00;;;;;;5094202;28;20148;-68
2022/08/06 03:48:11;;;;;;;7.15;3.20;;;25.00;59.70;;;;;;5094399;28;20024;-68
2022/08/06 03:50:43;;;;;;;3.65;2.80;;;25.10;59.70;;;;;;5094304;28;20025;-68
2022/08/06 03:53:17;;;;;;;4.85;3.50;;;25.10;59.60;;;;;;5094178;28;20503;-67
2022/08/06 03:55:45;;;;;;;9.63;3.92;;;25.10;59.70;;;;;;5094109;28;20025;-68
2022/08/06 03:58:14;;;;;;;5.68;3.20;;;25.20;59.80;;;;;;5094002;28;20046;-67
2022/08/06 04:00:51;;;;;;;5.60;3.33;;;25.20;59.80;;;;;;5093919;28;20143;-68
2022/08/06 04:03:18;;;;;;;5.88;3.38;;;25.30;59.70;;;;;;5094101;28;20031;-68
2022/08/06 04:05:44;;;;;;;4.30;3.00;;;25.30;59.30;;;;;;5111445;28;20027;-68
2022/08/06 04:08:12;;;;;;;4.55;3.20;;;25.30;59.30;;;;;;5114577;28;20068;-68
2022/08/06 04:10:41;;;;;;;4.85;2.92;;;25.40;59.30;;;;;;5114483;28;20020;-68
2022/08/06 04:13:13;;;;;;;4.60;3.45;;;25.40;59.10;;;;;;5114486;28;20026;-68
2022/08/06 04:15:39;;;;;;;4.22;3.50;;;25.40;59.60;;;;;;5115044;28;20047;-68
2022/08/06 04:18:09;;;;;;;11.93;3.97;;;25.40;59.00;;;;;;5114346;28;20023;-68
2022/08/06 04:20:35;;;;;;;4.28;3.33;;;25.40;59.40;;;;;;5113007;28;20027;-68
2022/08/06 04:23:02;;;;;;;6.53;3.67;;;25.50;60.80;;;;;;5114115;28;20123;-68
2022/08/06 04:25:38;;;;;;;5.38;3.55;;;25.40;60.90;;;;;;5113978;28;20024;-67
2022/08/06 04:28:05;;;;;;;4.80;3.70;;;25.30;61.00;;;;;;5113026;28;20492;-68
2022/08/06 04:30:32;;;;;;;4.78;3.78;;;25.20;61.70;;;;;;5113920;28;20412;-68
2022/08/06 04:33:00;;;;;;;7.22;4.32;;;25.20;61.70;;;;;;5113720;28;20022;-68
2022/08/06 04:35:27;;;;;;;6.35;4.32;;;25.00;62.00;;;;;;5112065;28;20067;-67
2022/08/06 04:37:53;;;;;;;5.93;3.95;;;25.00;62.30;;;;;;5113706;28;20024;-68
2022/08/06 04:40:19;;;;;;;6.53;3.70;;;24.90;62.60;;;;;;5105869;28;20055;-68
2022/08/06 04:42:45;;;;;;;4.85;3.58;;;24.90;62.70;;;;;;5091949;28;20035;-67
2022/08/06 04:45:11;;;;;;;4.57;3.90;;;24.80;62.70;;;;;;5093113;28;20027;-67
2022/08/06 04:47:39;;;;;;;6.25;4.32;;;24.80;63.60;;;;;;5093187;28;20024;-68
2022/08/06 04:50:05;;;;;;;5.28;3.72;;;24.80;63.40;;;;;;5093123;28;20020;-68
2022/08/06 04:52:32;;;;;;;7.28;4.10;;;24.80;63.40;;;;;;5093236;28;20091;-67
2022/08/06 04:54:58;;;;;;;5.80;3.60;;;24.80;63.80;;;;;;5093170;28;20139;-67
2022/08/06 04:57:23;;;;;;;6.93;4.18;;;24.80;63.90;;;;;;5093186;28;20545;-67
2022/08/06 04:59:52;;;;;;;7.50;4.57;;;24.80;64.00;;;;;;5092911;28;20385;-67
2022/08/06 05:02:18;;;;;;;5.57;3.97;;;24.80;64.20;;;;;;5091835;28;20024;-67
2022/08/06 05:04:44;;;;;;;4.78;3.85;;;24.80;64.10;;;;;;5101705;28;20039;-67
2022/08/06 05:07:16;;;;;;;7.30;3.85;;;24.80;64.20;;;;;;5113336;28;20023;-67
2022/08/06 05:09:42;;;;;;;3.90;3.53;;;24.90;64.60;;;;;;5113328;28;20047;-67
2022/08/06 05:12:26;;;;;;;5.00;3.75;;;24.90;64.60;;;;;;5113353;28;20426;-67
2022/08/06 05:14:54;;;;;;;6.25;4.28;;;24.90;65.20;;;;;;5113231;28;20133;-67
2022/08/06 05:17:24;;;;;;;5.68;4.13;;;25.00;64.60;;;;;;5113272;28;20066;-67
2022/08/06 05:20:12;;;;;;;7.20;4.15;;;25.10;64.50;;;;;;5111910;28;20020;-67
2022/08/06 05:22:41;;;;;;;4.60;3.78;;;25.10;64.30;;;;;;5112876;28;20060;-67
2022/08/06 05:25:07;;;;;;;6.13;4.30;;;25.20;64.50;;;;;;5112909;28;20034;-66
2022/08/06 05:27:35;;;;;;;5.97;3.92;;;25.20;64.30;;;;;;5113189;28;20047;-67
2022/08/06 05:30:04;;;;;;;6.03;3.72;;;25.20;64.20;;;;;;5112977;27;20024;-67
2022/08/06 05:32:30;;;;;;;4.55;3.80;;;25.20;64.20;;;;;;5133496;27;20361;-67
2022/08/06 05:34:56;;;;;;;8.07;4.20;;;25.20;64.40;;;;;;5118884;27;20696;-67
2022/08/06 05:37:21;;;;;;;9.73;4.10;;;25.20;64.20;;;;;;5112699;28;20059;-67
2022/08/06 05:39:47;;;;;;;7.18;4.15;;;25.20;64.00;;;;;;5097664;28;20439;-69
2022/08/06 05:42:13;;;;;;;8.40;4.45;;;25.30;64.20;;;;;;5113683;27;20027;-68
2022/08/06 05:44:38;;;;;;;6.03;4.13;;;25.20;64.10;;;;;;5112643;28;20130;-69
2022/08/06 05:47:09;;;;;;;8.45;4.30;;;25.20;64.00;;;;;;5112715;28;20023;-69
2022/08/06 05:49:44;;;;;;;5.20;4.03;;;25.20;64.00;;;;;;5111513;28;20048;-69
2022/08/06 05:52:28;;;;;;;4.65;3.42;;;25.20;63.80;;;;;;5115244;27;20476;-69
2022/08/06 05:55:35;;;;;;;4.43;3.83;;;25.20;63.80;;;;;;5112645;28;20023;-68
2022/08/06 05:58:06;;;;;;;6.50;3.55;;;25.30;64.10;;;;;;5112152;28;20036;-68
2022/08/06 06:00:34;;;;;;;4.22;3.63;;;25.30;64.40;;;;;;5115128;28;20020;-70
2022/08/06 06:03:03;;;;;;;5.50;4.03;;;25.40;64.50;;;;;;5111279;28;20072;-68
2022/08/06 06:05:30;;;;;;;7.15;4.28;;;25.40;64.40;;;;;;5110791;28;20476;-69
2022/08/06 06:07:56;;;;;;;5.95;4.43;;;25.40;64.30;;;;;;5112575;28;20024;-68
2022/08/06 06:10:25;;;;;;;10.88;5.00;;;25.50;64.30;;;;;;5112344;28;20027;-68
2022/08/06 06:12:52;;;;;;;6.75;4.32;;;25.50;64.10;;;;;;5112356;28;20076;-69
2022/08/06 06:15:18;;;;;;;8.15;3.95;;;25.60;64.10;;;;;;5112414;28;20031;-68
2022/08/06 06:18:18;;;;;;;6.38;3.80;;;25.60;64.20;;;;;;5112393;28;20072;-69
2022/08/06 06:21:10;;;;;;;7.85;4.30;;;25.70;64.20;;;;;;5112210;28;20077;-68
2022/08/06 06:23:45;;;;;;;5.63;3.53;;;25.80;64.10;;;;;;5112586;28;20444;-68
2022/08/06 06:26:11;;;;;;;4.38;3.50;;;25.90;64.30;;;;;;5112394;28;20016;-69
2022/08/06 06:29:01;;;;;;;4.32;3.63;;;26.00;64.10;;;;;;5110848;28;20111;-68
2022/08/06 06:31:36;;;;;;;3.60;2.65;;;26.10;63.60;;;;;;5112284;28;20024;-68
2022/08/06 06:34:13;;;;;;;2.92;2.03;;;26.30;63.60;;;;;;5110694;28;20047;-68
2022/08/06 06:36:49;;;;;;;2.17;1.83;;;26.40;61.70;;;;;;5111726;28;20031;-69
2022/08/06 06:39:24;;;;;;;1.50;1.30;;;26.50;61.60;;;;;;5091788;28;20020;-68
2022/08/06 06:42:02;;;;;;;2.90;1.17;;;26.60;59.70;;;;;;5091836;28;20400;-69
2022/08/06 06:44:37;;;;;;;1.30;0.98;;;26.70;59.00;;;;;;5091503;28;20028;-68
2022/08/06 06:47:15;;;;;;;1.55;0.85;;;26.80;58.10;;;;;;5091798;28;20355;-69
2022/08/06 06:49:49;;;;;;;0.60;0.60;;;26.80;57.10;;;;;;5092107;28;20051;-68
2022/08/06 06:52:22;;;;;;;0.70;0.70;;;26.90;56.80;;;;;;5094347;28;20454;-68
2022/08/06 06:54:54;;;;;;;1.20;1.10;;;27.10;57.20;;;;;;5095509;28;20020;-68
2022/08/06 06:57:24;;;;;;;5.28;2.17;;;27.10;55.90;;;;;;5095503;28;20028;-68
2022/08/06 06:59:53;;;;;;;1.67;1.17;;;27.10;54.80;;;;;;5095436;28;20023;-69
2022/08/06 07:02:24;;;;;;;1.00;0.85;;;27.10;54.30;;;;;;5095364;28;20028;-69
2022/08/06 07:04:53;;;;;;;1.58;1.05;;;27.00;54.30;;;;;;5103452;28;20107;-68
2022/08/06 07:07:20;;;;;;;1.55;0.90;;;27.00;54.40;;;;;;5115692;28;20488;-68
2022/08/06 07:09:47;;;;;;;0.80;0.80;;;26.90;54.30;;;;;;5115718;28;20538;-68
2022/08/06 07:12:18;;;;;;;2.67;1.10;;;26.90;54.80;;;;;;5115484;28;20012;-68
2022/08/06 07:14:45;;;;;;;3.28;0.80;;;26.90;54.50;;;;;;5115597;28;20028;-68
2022/08/06 07:17:12;;;;;;;1.08;0.90;;;26.90;53.90;;;;;;5115347;28;20491;-68
2022/08/06 07:19:38;;;;;;;1.65;1.00;;;26.90;53.80;;;;;;5117233;27;20047;-68
2022/08/06 07:22:04;;;;;;;0.70;0.70;;;26.90;53.20;;;;;;5129978;27;20051;-68
2022/08/06 07:24:34;;;;;;;0.80;0.80;;;26.90;53.30;;;;;;5125204;27;20019;-69
2022/08/06 07:27:01;;;;;;;1.27;0.88;;;26.90;53.00;;;;;;5123196;27;20567;-69
2022/08/06 07:29:28;;;;;;;0.80;0.80;;;27.00;53.00;;;;;;5124797;27;20044;-68
2022/08/06 07:31:56;;;;;;;2.35;1.33;;;26.90;52.20;;;;;;5124771;27;20015;-68
2022/08/06 07:34:22;;;;;;;1.33;1.00;;;27.00;52.50;;;;;;5116957;27;20024;-68
2022/08/06 07:36:52;;;;;;;1.67;1.05;;;27.10;52.20;;;;;;5114328;27;20032;-69
2022/08/06 07:39:24;;;;;;;3.50;0.90;;;27.10;51.70;;;;;;5103409;28;20094;-68
2022/08/06 07:41:52;;;;;;;1.38;0.95;;;27.10;51.20;;;;;;5104265;28;20081;-68
2022/08/06 07:44:21;;;;;;;0.50;0.50;;;27.00;50.20;;;;;;5102923;28;20464;-68
2022/08/06 07:46:51;;;;;;;0.63;0.45;;;26.90;49.80;;;;;;5118493;27;20393;-69
2022/08/06 07:49:20;;;;;;;0.45;0.45;;;26.90;49.80;;;;;;5119721;27;20054;-67
2022/08/06 07:51:47;;;;;;;0.47;0.47;;;26.80;49.30;;;;;;5123341;27;20466;-68
2022/08/06 07:54:14;;;;;;;0.30;0.30;;;26.70;48.80;;;;;;5124869;27;20019;-67
2022/08/06 07:56:42;;;;;;;0.45;0.30;;;26.50;48.60;;;;;;5124900;27;20080;-68
2022/08/06 07:59:09;;;;;;;0.30;0.30;;;26.40;48.50;;;;;;5123123;27;20047;-68
2022/08/06 08:01:37;;;;;;;0.40;0.40;;;26.30;48.40;;;;;;5123037;27;20022;-68
2022/08/06 08:06:53;;;;;;;0.50;0.50;;;26.10;49.00;;;;;;5124094;27;20062;-68
2022/08/06 08:09:23;;;;;;;1.25;1.02;;;26.10;49.40;;;;;;5119028;27;20020;-68
2022/08/06 08:11:50;;;;;;;0.60;0.50;;;26.00;48.80;;;;;;5123597;27;20023;-68
2022/08/06 08:14:20;;;;;;;0.60;0.60;;;25.90;48.20;;;;;;5125191;27;20150;-69
2022/08/06 08:16:47;;;;;;;1.00;0.85;;;25.90;48.40;;;;;;5122696;27;20023;-68
2022/08/06 08:19:32;;;;;;;1.00;0.60;;;25.80;48.40;;;;;;5122008;27;20349;-68
2022/08/06 08:22:18;;;;;;;11.88;1.88;;;25.70;48.00;;;;;;5114761;27;20040;-68
2022/08/06 08:24:45;;;;;;;1.00;0.80;;;25.60;48.60;;;;;;5103672;28;20015;-68
2022/08/06 08:27:12;;;;;;;0.70;0.70;;;25.50;48.30;;;;;;5102328;28;20020;-68
2022/08/06 08:29:39;;;;;;;0.88;0.70;;;25.50;48.00;;;;;;5104081;28;20377;-68
2022/08/06 08:32:06;;;;;;;2.65;0.98;;;25.40;48.70;;;;;;5102599;28;20016;-68
2022/08/06 08:34:33;;;;;;;0.60;0.60;;;25.40;48.30;;;;;;5103171;28;20031;-67
2022/08/06 08:36:59;;;;;;;1.55;1.00;;;25.30;48.20;;;;;;5102758;28;20027;-68
2022/08/06 08:39:27;;;;;;;0.95;0.70;;;25.20;48.80;;;;;;5102908;28;20103;-68
2022/08/06 08:42:00;;;;;;;1.05;0.70;;;25.20;48.70;;;;;;5103997;28;20065;-67
2022/08/06 08:44:27;;;;;;;1.38;0.75;;;25.20;48.60;;;;;;5101000;28;20023;-68
2022/08/06 08:46:57;;;;;;;2.17;0.60;;;25.10;48.50;;;;;;5103817;28;20024;-69
2022/08/06 08:49:39;;;;;;;0.77;0.60;;;25.10;48.60;;;;;;5119932;27;20064;-68
2022/08/06 08:52:08;;;;;;;1.85;0.60;;;25.00;49.10;;;;;;5121983;27;20014;-68
2022/08/06 08:54:36;;;;;;;1.60;0.70;;;25.00;48.30;;;;;;5122090;27;20047;-68
2022/08/06 08:57:05;;;;;;;2.20;0.60;;;25.00;48.40;;;;;;5123495;27;20094;-68
2022/08/06 08:59:32;;;;;;;3.35;1.15;;;25.00;48.20;;;;;;5124114;27;20031;-68
2022/08/06 09:01:58;;;;;;;0.75;0.63;;;25.10;48.30;;;;;;5120983;27;20019;-68
2022/08/06 09:04:26;;;;;;;1.70;0.70;;;25.00;48.00;;;;;;5120506;27;20024;-68
2022/08/06 09:06:52;;;;;;;1.73;0.80;;;25.10;48.30;;;;;;5121912;27;20027;-68
2022/08/06 09:09:18;;;;;;;0.88;0.70;;;25.10;48.50;;;;;;5123246;27;20024;-68
2022/08/06 09:11:44;;;;;;;1.20;0.70;;;25.10;47.90;;;;;;5121738;27;20023;-67
2022/08/06 09:14:10;;;;;;;1.15;0.88;;;25.10;47.50;;;;;;5120221;27;20031;-68
2022/08/06 09:16:37;;;;;;;0.93;0.73;;;25.10;47.90;;;;;;5122778;27;20027;-68
2022/08/06 09:19:05;;;;;;;0.90;0.70;;;25.10;47.90;;;;;;5121196;27;20055;-67
2022/08/06 09:21:32;;;;;;;2.15;1.10;;;25.10;47.90;;;;;;5121804;27;20048;-67
2022/08/06 09:23:58;;;;;;;0.90;0.90;;;25.00;47.90;;;;;;5121576;27;20020;-68
2022/08/06 09:26:24;;;;;;;2.00;1.02;;;25.00;47.70;;;;;;5123147;27;20011;-70
2022/08/06 09:28:50;;;;;;;1.35;1.25;;;25.00;47.90;;;;;;5123020;27;20019;-68
2022/08/06 09:31:20;;;;;;;1.85;1.15;;;25.00;48.20;;;;;;5121516;27;20026;-68
2022/08/06 09:34:02;;;;;;;2.70;1.00;;;25.00;47.90;;;;;;5121532;27;20023;-68
2022/08/06 09:36:28;;;;;;;1.17;1.08;;;25.00;47.70;;;;;;5121880;27;20076;-68
2022/08/06 09:38:55;;;;;;;1.02;0.85;;;25.00;47.50;;;;;;5100892;28;20488;-68
2022/08/06 09:41:23;;;;;;;2.15;1.10;;;24.90;47.30;;;;;;5102982;28;20096;-68
2022/08/06 09:43:53;;;;;;;2.53;1.27;;;24.90;47.20;;;;;;5109402;27;20020;-68
2022/08/06 09:46:36;;;;;;;1.15;1.05;;;24.90;47.60;;;;;;5101686;28;20311;-68
2022/08/06 09:49:03;;;;;;;2.75;1.50;;;24.90;47.90;;;;;;5122347;27;20011;-68
2022/08/06 09:51:30;;;;;;;1.33;1.20;;;24.90;47.50;;;;;;5121058;27;20037;-67
2022/08/06 09:53:59;;;;;;;1.23;1.13;;;24.80;47.50;;;;;;5121916;27;20054;-68
2022/08/06 09:56:26;;;;;;;1.50;1.40;;;24.80;47.30;;;;;;5125075;27;20481;-68
2022/08/06 09:59:07;;;;;;;2.05;1.40;;;24.80;47.80;;;;;;5132416;27;20023;-69
2022/08/06 10:01:43;;;;;;;1.52;1.20;;;24.80;48.00;;;;;;5133940;27;20026;-67
2022/08/06 10:04:14;;;;;;;1.85;1.30;;;24.90;47.80;;;;;;5130230;28;20023;-68
2022/08/06 10:06:53;;;;;;;4.38;1.20;;;24.90;47.60;;;;;;5113353;28;20030;-68
2022/08/06 10:09:19;;;;;;;2.17;1.20;;;24.90;47.60;;;;;;5113443;28;20106;-69
2022/08/06 10:11:45;;;;;;;1.80;1.15;;;25.00;47.20;;;;;;5113133;28;20181;-68
2022/08/06 10:14:25;;;;;;;1.73;1.10;;;25.00;47.20;;;;;;5113178;28;20028;-68
2022/08/06 10:17:09;;;;;;;1.58;1.38;;;25.00;47.20;;;;;;5113120;28;20028;-68
2022/08/06 10:19:36;;;;;;;2.08;1.23;;;24.90;46.90;;;;;;5113249;28;20381;-68
2022/08/06 10:22:10;;;;;;;1.20;1.10;;;25.00;46.70;;;;;;5112992;28;20040;-68
2022/08/06 10:24:48;;;;;;;1.92;1.33;;;25.00;46.10;;;;;;5113337;28;20024;-67
2022/08/06 10:27:20;;;;;;;3.50;1.50;;;24.90;46.00;;;;;;5117363;28;20029;-67
2022/08/06 10:29:55;;;;;;;2.63;1.35;;;24.90;45.70;;;;;;5117289;28;20480;-70
2022/08/06 10:32:29;;;;;;;2.45;1.50;;;25.00;45.30;;;;;;5105561;28;20419;-67
2022/08/06 10:34:57;;;;;;;1.90;1.30;;;25.00;45.50;;;;;;5106390;28;20480;-68
2022/08/06 10:37:24;;;;;;;1.63;1.00;;;25.00;44.70;;;;;;5117209;28;20093;-68
2022/08/06 10:39:56;;;;;;;2.60;1.50;;;25.00;44.80;;;;;;5117124;28;20127;-68
2022/08/06 10:42:22;;;;;;;3.20;1.15;;;25.00;44.50;;;;;;5117153;28;20425;-68
2022/08/06 10:44:50;;;;;;;1.95;1.35;;;25.00;44.30;;;;;;5116994;28;20028;-68
2022/08/06 10:47:16;;;;;;;2.40;1.23;;;25.00;44.40;;;;;;5117036;28;20047;-68
2022/08/06 10:49:43;;;;;;;1.48;1.20;;;25.00;45.10;;;;;;5117077;28;20026;-68
2022/08/06 10:52:11;;;;;;;2.75;1.33;;;25.10;45.50;;;;;;5116969;27;20095;-68
2022/08/06 10:54:37;;;;;;;5.28;1.10;;;25.10;46.10;;;;;;5116805;28;20042;-67
2022/08/06 10:57:04;;;;;;;2.72;1.00;;;25.10;45.70;;;;;;5116741;28;20106;-68
2022/08/06 10:59:29;;;;;;;4.20;1.45;;;25.10;45.50;;;;;;5116790;28;20165;-68
2022/08/06 11:02:01;;;;;;;1.85;1.40;;;25.10;46.00;;;;;;5116766;28;20051;-68
2022/08/06 11:04:51;;;;;;;1.70;0.90;;;25.10;45.10;;;;;;5114821;28;20107;-67
2022/08/06 11:07:20;;;;;;;3.20;1.20;;;25.20;45.20;;;;;;5116520;28;20488;-68
2022/08/06 11:10:24;;;;;;;1.52;0.88;;;25.20;43.70;;;;;;5116516;28;20023;-69
2022/08/06 11:12:58;;;;;;;2.45;1.13;;;25.20;44.10;;;;;;5116525;28;20018;-68
2022/08/06 11:15:24;;;;;;;2.30;1.17;;;25.20;43.60;;;;;;5116464;28;20114;-68
2022/08/06 11:17:54;;;;;;;1.25;0.85;;;25.20;43.40;;;;;;5114803;28;20039;-68
2022/08/06 11:20:32;;;;;;;4.97;0.70;;;25.20;43.60;;;;;;5114197;28;20110;-68
2022/08/06 11:23:22;;;;;;;1.58;0.85;;;25.20;43.50;;;;;;5112608;28;20432;-69
2022/08/06 11:25:54;;;;;;;3.65;1.10;;;25.20;43.10;;;;;;5113651;28;20039;-69
2022/08/06 11:28:40;;;;;;;2.75;1.30;;;25.10;43.60;;;;;;5114999;28;20399;-69
2022/08/06 11:31:07;;;;;;;1.95;0.90;;;25.10;44.30;;;;;;5102378;28;20646;-69
2022/08/06 11:33:33;;;;;;;1.52;0.90;;;25.00;44.00;;;;;;5115315;28;20022;-68
2022/08/06 11:36:04;;;;;;;2.53;0.80;;;25.00;44.20;;;;;;5113851;28;20106;-68
2022/08/06 11:38:46;;;;;;;2.10;1.15;;;25.00;44.30;;;;;;5115699;28;20099;-67
2022/08/06 11:41:42;;;;;;;2.13;1.30;;;25.00;44.20;;;;;;5115872;28;20026;-68
2022/08/06 11:44:08;;;;;;;3.20;1.08;;;24.90;44.40;;;;;;5115820;28;20027;-69
2022/08/06 11:46:41;;;;;;;1.45;1.00;;;25.00;44.50;;;;;;5115118;28;20045;-69
2022/08/06 11:49:21;;;;;;;1.95;1.17;;;24.90;44.00;;;;;;5115051;28;20034;-69
2022/08/06 11:51:57;;;;;;;1.10;0.80;;;24.90;44.30;;;;;;5112733;28;20028;-68
2022/08/06 11:54:28;;;;;;;2.92;1.20;;;25.00;45.10;;;;;;5109785;28;20057;-68
2022/08/06 11:57:12;;;;;;;1.90;1.20;;;25.00;44.30;;;;;;5114054;28;20032;-68
2022/08/06 11:59:49;;;;;;;2.08;1.45;;;25.00;44.40;;;;;;5112601;28;20047;-68
2022/08/06 12:02:36;;;;;;;1.20;1.10;;;25.10;44.10;;;;;;5114282;28;20015;-68
2022/08/06 12:05:03;;;;;;;2.00;1.20;;;25.20;43.80;;;;;;5110349;28;20469;-67
2022/08/06 12:07:34;;;;;;;2.17;1.10;;;25.20;43.30;;;;;;5113867;28;20027;-70
2022/08/06 12:10:05;;;;;;;3.80;1.40;;;25.20;43.10;;;;;;5113964;28;20508;-69
2022/08/06 12:12:48;;;;;;;3.03;1.33;;;25.20;43.30;;;;;;5113814;28;20024;-69
2022/08/06 12:15:16;;;;;;;3.45;1.27;;;25.30;43.10;;;;;;5112979;28;20015;-68
2022/08/06 12:17:54;;;;;;;2.30;1.42;;;25.30;42.70;;;;;;5111222;28;20030;-69
2022/08/06 12:20:36;;;;;;;2.17;1.23;;;25.30;42.80;;;;;;5111625;28;20469;-68
2022/08/06 12:23:08;;;;;;;2.33;1.05;;;25.30;42.40;;;;;;5111833;28;20446;-68
2022/08/06 12:25:36;;;;;;;3.83;1.33;;;25.20;42.20;;;;;;5113491;28;20024;-68
2022/08/06 12:28:03;;;;;;;2.15;1.25;;;25.20;42.50;;;;;;5113615;28;20492;-69
2022/08/06 12:30:45;;;;;;;1.58;1.20;;;25.20;42.60;;;;;;5113526;28;20024;-69
2022/08/06 12:33:12;;;;;;;1.90;1.08;;;25.10;42.20;;;;;;5113408;28;20011;-69
2022/08/06 12:36:00;;;;;;;1.20;1.08;;;25.10;42.60;;;;;;5112012;28;20035;-69
2022/08/06 12:38:31;;;;;;;2.67;1.10;;;25.10;42.80;;;;;;5112914;28;20102;-69
2022/08/06 12:41:01;;;;;;;1.58;1.00;;;25.10;42.60;;;;;;5113680;28;20035;-69
2022/08/06 12:43:29;;;;;;;1.33;0.75;;;25.20;43.10;;;;;;5113458;28;20069;-70
2022/08/06 12:46:03;;;;;;;1.10;1.00;;;25.20;43.80;;;;;;5113112;28;20023;-68
2022/08/06 12:48:30;;;;;;;1.40;1.02;;;25.20;44.40;;;;;;5109874;28;20399;-69
2022/08/06 12:51:07;;;;;;;1.45;1.05;;;25.30;44.70;;;;;;5113123;28;20046;-69
2022/08/06 12:53:37;;;;;;;1.75;1.05;;;25.40;44.90;;;;;;5110850;28;20020;-68
2022/08/06 12:56:03;;;;;;;1.30;1.20;;;25.50;45.10;;;;;;5113204;28;20069;-69
2022/08/06 12:58:38;;;;;;;1.42;1.05;;;25.50;45.30;;;;;;5109338;28;20058;-68
2022/08/06 13:01:06;;;;;;;1.33;0.90;;;25.60;45.50;;;;;;5113032;28;20054;-68
2022/08/06 13:03:35;;;;;;;1.73;1.38;;;25.60;45.70;;;;;;5111346;28;20062;-68
2022/08/06 13:06:03;;;;;;;1.40;0.90;;;25.60;45.00;;;;;;5112709;28;20051;-69
2022/08/06 13:08:30;;;;;;;1.48;1.13;;;25.60;43.90;;;;;;5112518;28;20041;-68